sensor_id;sensor_type;location;lat;lon;timestamp;pressure;altitude;pressure_sealevel;temperature;humidity
70690;BME280;58267;51.156;17.044;2023-03-25T10:58:15;99159.49;;;12.33;32.44
70690;BME280;58267;51.156;17.044;2023-03-25T11:00:40;99145.08;;;13.52;31.79
70690;BME280;58267;51.156;17.044;2023-03-25T11:03:09;99150.36;;;14.62;30.80
70690;BME280;58267;51.156;17.044;2023-03-25T11:05:33;99142.30;;;14.41;29.69
70690;BME280;58267;51.156;17.044;2023-03-25T11:07:58;99124.58;;;15.46;28.68
70690;BME280;58267;51.156;17.044;2023-03-25T11:10:23;99130.90;;;14.64;28.64
70690;BME280;58267;51.156;17.044;2023-03-25T11:12:49;99128.94;;;15.37;29.62
70690;BME280;58267;51.156;17.044;2023-03-25T11:15:14;99129.71;;;15.28;28.17
70690;BME280;58267;51.156;17.044;2023-03-25T11:17:36;99126.39;;;15.01;28.36
70690;BME280;58267;51.156;17.044;2023-03-25T11:20:06;99128.68;;;14.56;28.65
70690;BME280;58267;51.156;17.044;2023-03-25T11:22:28;99137.22;;;15.59;28.63
70690;BME280;58267;51.156;17.044;2023-03-25T11:24:58;99119.42;;;14.95;28.76
70690;BME280;58267;51.156;17.044;2023-03-25T11:27:20;99120.33;;;13.82;30.09
70690;BME280;58267;51.156;17.044;2023-03-25T11:29:51;99117.32;;;13.37;30.69
70690;BME280;58267;51.156;17.044;2023-03-25T11:32:13;99129.14;;;14.47;28.75
70690;BME280;58267;51.156;17.044;2023-03-25T11:34:35;99139.05;;;14.06;29.22
70690;BME280;58267;51.156;17.044;2023-03-25T11:37:00;99129.11;;;14.39;29.70
70690;BME280;58267;51.156;17.044;2023-03-25T11:39:31;99134.87;;;13.80;30.04
70690;BME280;58267;51.156;17.044;2023-03-25T11:41:49;99119.08;;;13.47;30.41
70690;BME280;58267;51.156;17.044;2023-03-25T11:44:21;99129.70;;;12.82;31.92
70690;BME280;58267;51.156;17.044;2023-03-25T11:46:42;99110.55;;;14.27;30.62
70690;BME280;58267;51.156;17.044;2023-03-25T11:49:09;99118.51;;;14.55;29.69
70690;BME280;58267;51.156;17.044;2023-03-25T11:51:31;99118.60;;;13.20;30.97
70690;BME280;58267;51.156;17.044;2023-03-25T11:53:57;99116.21;;;13.30;30.46
70690;BME280;58267;51.156;17.044;2023-03-25T11:56:22;99126.59;;;12.94;31.30
70690;BME280;58267;51.156;17.044;2023-03-25T11:58:44;99142.52;;;12.30;31.73
70690;BME280;58267;51.156;17.044;2023-03-25T12:03:35;99131.13;;;12.40;30.97
70690;BME280;58267;51.156;17.044;2023-03-25T12:06:04;99140.31;;;12.98;30.24
70690;BME280;58267;51.156;17.044;2023-03-25T12:08:29;99137.90;;;12.34;30.80
70690;BME280;58267;51.156;17.044;2023-03-25T12:10:54;99133.58;;;12.80;29.81
70690;BME280;58267;51.156;17.044;2023-03-25T12:13:24;99124.67;;;12.49;30.13
70690;BME280;58267;51.156;17.044;2023-03-25T12:15:44;99142.56;;;13.47;29.17
70690;BME280;58267;51.156;17.044;2023-03-25T12:18:18;99138.25;;;13.33;29.68
70690;BME280;58267;51.156;17.044;2023-03-25T12:20:38;99149.59;;;13.80;29.70
70690;BME280;58267;51.156;17.044;2023-03-25T12:23:01;99155.00;;;13.74;32.22
70690;BME280;58267;51.156;17.044;2023-03-25T12:25:25;99169.26;;;13.24;33.04
70690;BME280;58267;51.156;17.044;2023-03-25T12:27:56;99191.03;;;13.46;32.94
70690;BME280;58267;51.156;17.044;2023-03-25T12:30:24;99206.17;;;11.74;35.87
70690;BME280;58267;51.156;17.044;2023-03-25T12:32:42;99208.69;;;11.22;37.79
70690;BME280;58267;51.156;17.044;2023-03-25T12:35:13;99211.70;;;11.23;39.88
70690;BME280;58267;51.156;17.044;2023-03-25T12:37:33;99211.72;;;12.16;37.95
70690;BME280;58267;51.156;17.044;2023-03-25T12:40:07;99228.70;;;10.34;42.30
70690;BME280;58267;51.156;17.044;2023-03-25T12:42:29;99224.66;;;9.32;44.82
70690;BME280;58267;51.156;17.044;2023-03-25T12:44:55;99214.30;;;11.08;42.79
70690;BME280;58267;51.156;17.044;2023-03-25T12:47:15;99217.26;;;10.77;43.61
70690;BME280;58267;51.156;17.044;2023-03-25T12:49:44;99228.43;;;9.63;46.38
70690;BME280;58267;51.156;17.044;2023-03-25T12:52:04;99223.24;;;8.83;48.44
70690;BME280;58267;51.156;17.044;2023-03-25T12:54:35;99225.14;;;10.02;47.98
70690;BME280;58267;51.156;17.044;2023-03-25T12:56:57;99222.74;;;10.31;47.41
70690;BME280;58267;51.156;17.044;2023-03-25T12:59:24;99211.61;;;10.23;46.76
70690;BME280;58267;51.156;17.044;2023-03-25T13:01:47;99210.20;;;10.72;45.95
70690;BME280;58267;51.156;17.044;2023-03-25T13:04:18;99207.43;;;10.23;46.75
70690;BME280;58267;51.156;17.044;2023-03-25T13:06:36;99206.84;;;11.10;45.61
70690;BME280;58267;51.156;17.044;2023-03-25T13:09:00;99201.54;;;10.51;45.88
70690;BME280;58267;51.156;17.044;2023-03-25T13:11:26;99212.01;;;10.59;45.87
70690;BME280;58267;51.156;17.044;2023-03-25T13:13:48;99208.29;;;11.36;44.30
70690;BME280;58267;51.156;17.044;2023-03-25T13:16:14;99213.66;;;11.65;43.71
70690;BME280;58267;51.156;17.044;2023-03-25T13:18:40;99210.75;;;9.74;43.61
70690;BME280;58267;51.156;17.044;2023-03-25T13:21:05;99212.55;;;10.91;41.21
70690;BME280;58267;51.156;17.044;2023-03-25T13:23:28;99199.80;;;11.69;40.47
70690;BME280;58267;51.156;17.044;2023-03-25T13:25:55;99188.98;;;11.45;39.34
70690;BME280;58267;51.156;17.044;2023-03-25T13:28:22;99178.95;;;11.92;38.59
70690;BME280;58267;51.156;17.044;2023-03-25T13:30:45;99185.96;;;12.76;37.94
70690;BME280;58267;51.156;17.044;2023-03-25T13:33:12;99186.75;;;13.13;36.45
70690;BME280;58267;51.156;17.044;2023-03-25T13:35:40;99181.03;;;13.33;35.78
70690;BME280;58267;51.156;17.044;2023-03-25T13:38:02;99170.39;;;13.59;35.41
70690;BME280;58267;51.156;17.044;2023-03-25T13:40:27;99171.86;;;14.09;34.04
70690;BME280;58267;51.156;17.044;2023-03-25T13:42:54;99176.62;;;12.61;35.11
70690;BME280;58267;51.156;17.044;2023-03-25T13:45:16;99184.32;;;12.57;35.50
70690;BME280;58267;51.156;17.044;2023-03-25T13:47:42;99184.47;;;12.19;36.13
70690;BME280;58267;51.156;17.044;2023-03-25T13:50:13;99171.45;;;12.62;35.71
70690;BME280;58267;51.156;17.044;2023-03-25T13:52:35;99179.27;;;12.92;34.85
70690;BME280;58267;51.156;17.044;2023-03-25T13:54:57;99176.56;;;11.06;37.42
70690;BME280;58267;51.156;17.044;2023-03-25T13:57:33;99173.30;;;11.59;37.96
70690;BME280;58267;51.156;17.044;2023-03-25T13:59:57;99172.33;;;12.23;36.88
70690;BME280;58267;51.156;17.044;2023-03-25T14:11:54;99161.60;;;13.59;35.08
70690;BME280;58267;51.156;17.044;2023-03-25T14:14:18;99155.83;;;12.70;35.81
70690;BME280;58267;51.156;17.044;2023-03-25T14:16:45;99156.72;;;13.24;35.42
70690;BME280;58267;51.156;17.044;2023-03-25T14:19:11;99144.53;;;13.85;34.19
70690;BME280;58267;51.156;17.044;2023-03-25T14:21:39;99148.90;;;14.10;32.85
70690;BME280;58267;51.156;17.044;2023-03-25T14:24:01;99141.98;;;15.08;32.04
70690;BME280;58267;51.156;17.044;2023-03-25T14:26:23;99142.07;;;14.11;32.44
70690;BME280;58267;51.156;17.044;2023-03-25T14:28:48;99144.91;;;13.60;32.53
70690;BME280;58267;51.156;17.044;2023-03-25T14:31:28;99147.44;;;13.53;32.59
70690;BME280;58267;51.156;17.044;2023-03-25T14:36:05;99148.66;;;14.35;31.99
70690;BME280;58267;51.156;17.044;2023-03-25T14:40:55;99148.99;;;14.33;31.87
70690;BME280;58267;51.156;17.044;2023-03-25T14:43:23;99146.57;;;13.26;33.20
70690;BME280;58267;51.156;17.044;2023-03-25T14:45:53;99141.65;;;13.61;32.98
70690;BME280;58267;51.156;17.044;2023-03-25T14:50:36;99156.33;;;14.46;31.78
70690;BME280;58267;51.156;17.044;2023-03-25T14:53:03;99152.81;;;13.41;32.64
70690;BME280;58267;51.156;17.044;2023-03-25T14:55:28;99161.17;;;13.02;33.09
70690;BME280;58267;51.156;17.044;2023-03-25T14:57:56;99154.51;;;13.36;33.47
70690;BME280;58267;51.156;17.044;2023-03-25T15:00:21;99169.20;;;13.85;32.61
70690;BME280;58267;51.156;17.044;2023-03-25T15:02:43;99184.17;;;11.22;36.25
70690;BME280;58267;51.156;17.044;2023-03-25T15:05:14;99189.99;;;12.00;35.58
70690;BME280;58267;51.156;17.044;2023-03-25T15:07:38;99191.41;;;12.89;34.43
70690;BME280;58267;51.156;17.044;2023-03-25T15:09:58;99199.31;;;12.80;34.08
70690;BME280;58267;51.156;17.044;2023-03-25T15:12:24;99198.52;;;11.09;35.44
70690;BME280;58267;51.156;17.044;2023-03-25T15:14:49;99196.98;;;10.89;36.05
70690;BME280;58267;51.156;17.044;2023-03-25T15:22:06;99190.85;;;11.56;36.83
70690;BME280;58267;51.156;17.044;2023-03-25T15:24:30;99193.72;;;11.43;38.55
70690;BME280;58267;51.156;17.044;2023-03-25T15:26:54;99180.02;;;12.04;38.33
70690;BME280;58267;51.156;17.044;2023-03-25T15:29:27;99174.11;;;12.08;38.23
70690;BME280;58267;51.156;17.044;2023-03-25T15:31:51;99169.09;;;12.45;37.61
70690;BME280;58267;51.156;17.044;2023-03-25T15:34:18;99169.85;;;12.60;37.24
70690;BME280;58267;51.156;17.044;2023-03-25T15:36:45;99168.97;;;12.87;37.49
70690;BME280;58267;51.156;17.044;2023-03-25T15:39:13;99162.89;;;12.48;36.90
70690;BME280;58267;51.156;17.044;2023-03-25T15:41:42;99161.85;;;12.82;36.37
70690;BME280;58267;51.156;17.044;2023-03-25T15:48:53;99148.06;;;14.13;33.71
70690;BME280;58267;51.156;17.044;2023-03-25T15:51:15;99145.71;;;15.07;32.85
70690;BME280;58267;51.156;17.044;2023-03-25T15:53:38;99144.63;;;14.86;32.69
70690;BME280;58267;51.156;17.044;2023-03-25T15:55:59;99142.39;;;15.79;31.95
70690;BME280;58267;51.156;17.044;2023-03-25T15:58:25;99146.86;;;15.42;31.76
70690;BME280;58267;51.156;17.044;2023-03-25T16:00:49;99152.91;;;15.19;32.05
70690;BME280;58267;51.156;17.044;2023-03-25T16:03:14;99143.46;;;15.40;31.97
70690;BME280;58267;51.156;17.044;2023-03-25T16:05:43;99133.27;;;15.67;31.74
70690;BME280;58267;51.156;17.044;2023-03-25T16:08:08;99133.24;;;15.61;31.43
70690;BME280;58267;51.156;17.044;2023-03-25T16:10:29;99129.63;;;15.12;31.39
70690;BME280;58267;51.156;17.044;2023-03-25T16:12:52;99125.58;;;15.54;31.08
70690;BME280;58267;51.156;17.044;2023-03-25T16:15:21;99127.80;;;15.75;30.67
70690;BME280;58267;51.156;17.044;2023-03-25T16:17:44;99126.64;;;15.55;30.39
70690;BME280;58267;51.156;17.044;2023-03-25T16:20:13;99129.83;;;16.24;45.19
70690;BME280;58267;51.156;17.044;2023-03-25T16:22:34;99125.29;;;18.36;40.33
70690;BME280;58267;51.156;17.044;2023-03-25T16:25:03;99122.79;;;19.29;34.45
70690;BME280;58267;51.156;17.044;2023-03-25T16:27:29;99124.85;;;19.98;34.84
70690;BME280;58267;51.156;17.044;2023-03-25T16:29:53;99129.18;;;19.94;32.48
70690;BME280;58267;51.156;17.044;2023-03-25T16:32:19;99121.89;;;19.23;29.30
70690;BME280;58267;51.156;17.044;2023-03-25T16:34:41;99127.80;;;18.27;29.60
70690;BME280;58267;51.156;17.044;2023-03-25T16:37:08;99133.60;;;18.01;31.91
70690;BME280;58267;51.156;17.044;2023-03-25T16:39:35;99139.59;;;17.90;33.84
70690;BME280;58267;51.156;17.044;2023-03-25T16:42:01;99137.95;;;17.88;28.82
70690;BME280;58267;51.156;17.044;2023-03-25T16:44:24;99140.43;;;17.86;28.54
70690;BME280;58267;51.156;17.044;2023-03-25T16:46:51;99138.61;;;17.60;28.76
70690;BME280;58267;51.156;17.044;2023-03-25T16:49:23;99140.16;;;17.63;28.82
70690;BME280;58267;51.156;17.044;2023-03-25T16:51:43;99142.28;;;17.74;28.91
70690;BME280;58267;51.156;17.044;2023-03-25T16:54:08;99144.67;;;17.33;29.01
70690;BME280;58267;51.156;17.044;2023-03-25T16:56:36;99143.22;;;17.13;30.03
70690;BME280;58267;51.156;17.044;2023-03-25T16:59:00;99145.14;;;16.88;28.91
70690;BME280;58267;51.156;17.044;2023-03-25T17:01:23;99143.32;;;16.59;31.02
70690;BME280;58267;51.156;17.044;2023-03-25T17:03:49;99143.11;;;16.69;30.74
70690;BME280;58267;51.156;17.044;2023-03-25T17:06:19;99145.04;;;16.67;29.65
70690;BME280;58267;51.156;17.044;2023-03-25T17:08:40;99144.41;;;16.71;30.26
70690;BME280;58267;51.156;17.044;2023-03-25T17:11:07;99142.51;;;16.89;29.76
70690;BME280;58267;51.156;17.044;2023-03-25T17:13:36;99142.71;;;17.18;29.35
70690;BME280;58267;51.156;17.044;2023-03-25T17:15:56;99141.75;;;16.72;30.78
70690;BME280;58267;51.156;17.044;2023-03-25T17:18:25;99142.40;;;17.00;29.35
70690;BME280;58267;51.156;17.044;2023-03-25T17:20:48;99144.75;;;17.34;31.49
70690;BME280;58267;51.156;17.044;2023-03-25T17:23:20;99147.64;;;16.76;31.63
70690;BME280;58267;51.156;17.044;2023-03-25T17:25:47;99145.37;;;17.06;30.53
70690;BME280;58267;51.156;17.044;2023-03-25T17:30:43;99143.33;;;17.02;30.22
70690;BME280;58267;51.156;17.044;2023-03-25T17:33:07;99146.21;;;16.87;29.87
70690;BME280;58267;51.156;17.044;2023-03-25T17:35:23;99147.90;;;16.03;29.90
70690;BME280;58267;51.156;17.044;2023-03-25T17:37:49;99146.72;;;15.73;30.66
70690;BME280;58267;51.156;17.044;2023-03-25T17:40:19;99146.01;;;15.14;31.32
70690;BME280;58267;51.156;17.044;2023-03-25T17:42:39;99143.81;;;14.80;31.75
70690;BME280;58267;51.156;17.044;2023-03-25T17:45:04;99140.94;;;14.96;31.93
70690;BME280;58267;51.156;17.044;2023-03-25T17:47:29;99142.12;;;14.99;32.11
70690;BME280;58267;51.156;17.044;2023-03-25T17:49:54;99140.55;;;14.41;32.46
70690;BME280;58267;51.156;17.044;2023-03-25T17:52:20;99137.68;;;14.08;32.87
70690;BME280;58267;51.156;17.044;2023-03-25T17:54:45;99138.33;;;14.15;32.93
70690;BME280;58267;51.156;17.044;2023-03-25T17:57:15;99141.95;;;13.81;33.27
70690;BME280;58267;51.156;17.044;2023-03-25T17:59:35;99137.19;;;13.84;33.29
70690;BME280;58267;51.156;17.044;2023-03-25T18:02:01;99142.23;;;13.79;33.23
70690;BME280;58267;51.156;17.044;2023-03-25T18:04:26;99146.09;;;13.99;33.43
70690;BME280;58267;51.156;17.044;2023-03-25T18:06:52;99145.23;;;14.11;33.45
70690;BME280;58267;51.156;17.044;2023-03-25T18:09:19;99142.61;;;13.41;33.74
70690;BME280;58267;51.156;17.044;2023-03-25T18:11:43;99144.70;;;13.55;33.78
70690;BME280;58267;51.156;17.044;2023-03-25T18:14:08;99145.89;;;13.72;33.74
70690;BME280;58267;51.156;17.044;2023-03-25T18:16:33;99151.07;;;13.46;33.68
70690;BME280;58267;51.156;17.044;2023-03-25T18:18:58;99152.13;;;13.44;33.66
70690;BME280;58267;51.156;17.044;2023-03-25T18:21:24;99150.63;;;13.46;33.87
70690;BME280;58267;51.156;17.044;2023-03-25T18:23:49;99149.19;;;13.55;33.80
70690;BME280;58267;51.156;17.044;2023-03-25T18:26:16;99147.85;;;13.80;33.73
70690;BME280;58267;51.156;17.044;2023-03-25T18:28:39;99151.63;;;13.56;33.83
70690;BME280;58267;51.156;17.044;2023-03-25T18:31:05;99157.17;;;13.55;33.81
70690;BME280;58267;51.156;17.044;2023-03-25T18:33:30;99163.52;;;13.67;33.95
70690;BME280;58267;51.156;17.044;2023-03-25T18:35:55;99180.13;;;13.30;34.58
70690;BME280;58267;51.156;17.044;2023-03-25T18:38:22;99185.49;;;12.90;34.88
70690;BME280;58267;51.156;17.044;2023-03-25T18:40:46;99204.97;;;12.67;35.85
70690;BME280;58267;51.156;17.044;2023-03-25T18:43:12;99211.54;;;12.13;36.35
70690;BME280;58267;51.156;17.044;2023-03-25T18:45:38;99203.15;;;11.60;37.46
70690;BME280;58267;51.156;17.044;2023-03-25T18:48:03;99228.62;;;11.13;38.34
70690;BME280;58267;51.156;17.044;2023-03-25T18:50:30;99204.93;;;11.38;38.17
70690;BME280;58267;51.156;17.044;2023-03-25T18:52:54;99213.07;;;10.07;40.64
70690;BME280;58267;51.156;17.044;2023-03-25T18:55:19;99211.25;;;10.01;41.09
70690;BME280;58267;51.156;17.044;2023-03-25T18:57:45;99215.62;;;9.60;41.73
70690;BME280;58267;51.156;17.044;2023-03-25T19:00:17;99216.39;;;9.79;41.09
70690;BME280;58267;51.156;17.044;2023-03-25T19:02:36;99218.66;;;9.05;42.99
70690;BME280;58267;51.156;17.044;2023-03-25T19:05:01;99209.22;;;9.55;42.41
70690;BME280;58267;51.156;17.044;2023-03-25T19:07:26;99207.52;;;10.18;41.20
70690;BME280;58267;51.156;17.044;2023-03-25T19:09:51;99206.30;;;11.03;40.05
70690;BME280;58267;51.156;17.044;2023-03-25T19:12:17;99214.07;;;10.60;39.91
70690;BME280;58267;51.156;17.044;2023-03-25T19:14:42;99218.26;;;10.43;39.41
70690;BME280;58267;51.156;17.044;2023-03-25T19:17:07;99221.75;;;11.21;38.19
70690;BME280;58267;51.156;17.044;2023-03-25T19:19:32;99226.12;;;10.33;39.17
70690;BME280;58267;51.156;17.044;2023-03-25T19:21:58;99221.09;;;10.35;39.35
70690;BME280;58267;51.156;17.044;2023-03-25T19:24:23;99217.01;;;10.73;40.16
70690;BME280;58267;51.156;17.044;2023-03-25T19:26:48;99219.93;;;9.98;39.76
70690;BME280;58267;51.156;17.044;2023-03-25T19:29:13;99214.20;;;9.27;40.88
70690;BME280;58267;51.156;17.044;2023-03-25T19:31:39;99213.66;;;10.23;40.08
70690;BME280;58267;51.156;17.044;2023-03-25T19:34:05;99212.04;;;9.93;40.16
70690;BME280;58267;51.156;17.044;2023-03-25T19:36:30;99214.80;;;10.22;39.55
70690;BME280;58267;51.156;17.044;2023-03-25T19:38:55;99217.28;;;9.85;39.87
70690;BME280;58267;51.156;17.044;2023-03-25T19:41:20;99220.27;;;9.86;39.86
70690;BME280;58267;51.156;17.044;2023-03-25T19:43:46;99219.09;;;9.58;39.93
70690;BME280;58267;51.156;17.044;2023-03-25T19:46:11;99217.72;;;9.41;40.31
70690;BME280;58267;51.156;17.044;2023-03-25T19:48:37;99216.22;;;10.51;39.07
70690;BME280;58267;51.156;17.044;2023-03-25T19:51:02;99221.24;;;9.57;40.14
70690;BME280;58267;51.156;17.044;2023-03-25T19:53:27;99215.00;;;9.81;40.40
70690;BME280;58267;51.156;17.044;2023-03-25T19:55:52;99220.44;;;9.15;41.14
70690;BME280;58267;51.156;17.044;2023-03-25T19:58:17;99216.80;;;9.70;40.92
70690;BME280;58267;51.156;17.044;2023-03-25T20:00:42;99218.61;;;10.00;40.27
70690;BME280;58267;51.156;17.044;2023-03-25T20:03:07;99218.67;;;10.63;38.85
70690;BME280;58267;51.156;17.044;2023-03-25T20:05:33;99219.12;;;10.29;39.74
70690;BME280;58267;51.156;17.044;2023-03-25T20:07:58;99224.04;;;10.31;39.93
70690;BME280;58267;51.156;17.044;2023-03-25T20:10:25;99218.05;;;10.42;39.43
70690;BME280;58267;51.156;17.044;2023-03-25T20:12:50;99222.03;;;9.84;40.06
70690;BME280;58267;51.156;17.044;2023-03-25T20:15:17;99220.67;;;10.49;39.86
70690;BME280;58267;51.156;17.044;2023-03-25T20:17:40;99217.51;;;10.33;39.28
70690;BME280;58267;51.156;17.044;2023-03-25T20:20:08;99217.08;;;10.89;38.47
70690;BME280;58267;51.156;17.044;2023-03-25T20:22:31;99218.51;;;11.20;38.04
70690;BME280;58267;51.156;17.044;2023-03-25T20:24:57;99219.05;;;11.65;37.37
70690;BME280;58267;51.156;17.044;2023-03-25T20:27:22;99219.75;;;11.39;37.63
70690;BME280;58267;51.156;17.044;2023-03-25T20:29:47;99221.31;;;11.11;37.56
70690;BME280;58267;51.156;17.044;2023-03-25T20:32:12;99218.97;;;11.27;37.26
70690;BME280;58267;51.156;17.044;2023-03-25T20:34:38;99215.25;;;11.34;37.03
70690;BME280;58267;51.156;17.044;2023-03-25T20:37:04;99215.74;;;10.72;37.52
70690;BME280;58267;51.156;17.044;2023-03-25T20:39:29;99212.82;;;11.12;37.15
70690;BME280;58267;51.156;17.044;2023-03-25T20:41:54;99209.16;;;11.42;36.75
70690;BME280;58267;51.156;17.044;2023-03-25T20:44:19;99206.97;;;10.80;36.33
70690;BME280;58267;51.156;17.044;2023-03-25T20:46:44;99207.02;;;11.14;36.42
70690;BME280;58267;51.156;17.044;2023-03-25T20:49:09;99206.80;;;11.36;35.83
70690;BME280;58267;51.156;17.044;2023-03-25T20:51:35;99198.12;;;11.41;35.95
70690;BME280;58267;51.156;17.044;2023-03-25T20:54:00;99201.36;;;11.14;35.75
70690;BME280;58267;51.156;17.044;2023-03-25T20:56:25;99202.72;;;11.31;35.82
70690;BME280;58267;51.156;17.044;2023-03-25T20:58:50;99199.42;;;10.77;36.41
70690;BME280;58267;51.156;17.044;2023-03-25T21:01:16;99197.35;;;10.88;36.13
70690;BME280;58267;51.156;17.044;2023-03-25T21:03:41;99200.93;;;11.42;35.66
70690;BME280;58267;51.156;17.044;2023-03-25T21:06:07;99200.52;;;11.35;35.55
70690;BME280;58267;51.156;17.044;2023-03-25T21:08:32;99200.53;;;10.85;35.70
70690;BME280;58267;51.156;17.044;2023-03-25T21:10:59;99197.51;;;11.58;35.26
70690;BME280;58267;51.156;17.044;2023-03-25T21:13:23;99204.43;;;10.49;36.41
70690;BME280;58267;51.156;17.044;2023-03-25T21:15:52;99199.04;;;10.45;36.25
70690;BME280;58267;51.156;17.044;2023-03-25T21:18:13;99200.00;;;11.32;35.67
70690;BME280;58267;51.156;17.044;2023-03-25T21:20:38;99203.43;;;11.49;35.17
70690;BME280;58267;51.156;17.044;2023-03-25T21:23:04;99201.13;;;11.43;34.81
70690;BME280;58267;51.156;17.044;2023-03-25T21:25:29;99199.29;;;11.74;34.42
70690;BME280;58267;51.156;17.044;2023-03-25T21:27:55;99196.35;;;11.55;34.56
70690;BME280;58267;51.156;17.044;2023-03-25T21:30:20;99195.95;;;11.60;35.00
70690;BME280;58267;51.156;17.044;2023-03-25T21:32:46;99199.02;;;11.69;35.01
70690;BME280;58267;51.156;17.044;2023-03-25T21:35:11;99192.54;;;11.14;35.19
70690;BME280;58267;51.156;17.044;2023-03-25T21:37:36;99200.27;;;11.55;35.15
70690;BME280;58267;51.156;17.044;2023-03-25T21:40:01;99198.92;;;11.12;35.50
70690;BME280;58267;51.156;17.044;2023-03-25T21:42:26;99199.81;;;11.47;35.42
70690;BME280;58267;51.156;17.044;2023-03-25T21:44:51;99200.77;;;11.19;35.53
70690;BME280;58267;51.156;17.044;2023-03-25T21:47:17;99200.64;;;11.24;35.62
70690;BME280;58267;51.156;17.044;2023-03-25T21:49:43;99203.15;;;11.39;35.72
70690;BME280;58267;51.156;17.044;2023-03-25T21:52:08;99204.87;;;11.14;35.72
70690;BME280;58267;51.156;17.044;2023-03-25T21:54:33;99204.45;;;11.10;35.85
70690;BME280;58267;51.156;17.044;2023-03-25T21:56:58;99204.80;;;11.14;35.74
70690;BME280;58267;51.156;17.044;2023-03-25T21:59:24;99203.68;;;11.01;35.90
70690;BME280;58267;51.156;17.044;2023-03-25T22:01:49;99201.82;;;10.90;36.05
70690;BME280;58267;51.156;17.044;2023-03-25T22:04:14;99201.93;;;11.19;36.12
70690;BME280;58267;51.156;17.044;2023-03-25T22:06:40;99199.64;;;11.26;36.01
70690;BME280;58267;51.156;17.044;2023-03-25T22:09:05;99196.73;;;11.42;35.99
70690;BME280;58267;51.156;17.044;2023-03-25T22:11:32;99196.15;;;11.30;36.13
70690;BME280;58267;51.156;17.044;2023-03-25T22:13:56;99195.02;;;11.23;35.93
70690;BME280;58267;51.156;17.044;2023-03-25T22:16:21;99193.50;;;10.94;36.01
70690;BME280;58267;51.156;17.044;2023-03-25T22:18:47;99187.70;;;11.18;35.70
70690;BME280;58267;51.156;17.044;2023-03-25T22:21:14;99183.45;;;11.53;35.70
70690;BME280;58267;51.156;17.044;2023-03-25T22:23:38;99178.80;;;11.18;35.85
70690;BME280;58267;51.156;17.044;2023-03-25T22:26:03;99174.56;;;11.51;35.83
70690;BME280;58267;51.156;17.044;2023-03-25T22:28:28;99176.41;;;11.51;35.77
70690;BME280;58267;51.156;17.044;2023-03-25T22:30:54;99174.21;;;11.46;35.92
70690;BME280;58267;51.156;17.044;2023-03-25T22:33:19;99169.86;;;11.27;36.10
70690;BME280;58267;51.156;17.044;2023-03-25T22:35:44;99170.33;;;11.56;36.12
70690;BME280;58267;51.156;17.044;2023-03-25T22:38:09;99170.10;;;11.25;36.16
70690;BME280;58267;51.156;17.044;2023-03-25T22:40:35;99167.31;;;11.19;36.20
70690;BME280;58267;51.156;17.044;2023-03-25T22:43:00;99168.17;;;11.36;36.22
70690;BME280;58267;51.156;17.044;2023-03-25T22:45:26;99169.85;;;11.33;36.40
70690;BME280;58267;51.156;17.044;2023-03-25T22:47:52;99160.81;;;10.70;36.91
70690;BME280;58267;51.156;17.044;2023-03-25T22:50:18;99167.22;;;11.10;36.73
70690;BME280;58267;51.156;17.044;2023-03-25T22:52:43;99168.98;;;10.81;36.76
70690;BME280;58267;51.156;17.044;2023-03-25T22:55:09;99168.07;;;10.79;36.78
70690;BME280;58267;51.156;17.044;2023-03-25T22:57:34;99166.65;;;10.68;36.81
70690;BME280;58267;51.156;17.044;2023-03-25T22:59:59;99167.42;;;10.94;36.46
70690;BME280;58267;51.156;17.044;2023-03-25T23:02:24;99165.02;;;10.98;36.57
70690;BME280;58267;51.156;17.044;2023-03-25T23:04:49;99163.08;;;10.78;36.93
70690;BME280;58267;51.156;17.044;2023-03-25T23:07:15;99161.40;;;10.51;36.98
70690;BME280;58267;51.156;17.044;2023-03-25T23:09:40;99163.58;;;10.76;36.82
70690;BME280;58267;51.156;17.044;2023-03-25T23:12:06;99163.76;;;10.89;36.67
70690;BME280;58267;51.156;17.044;2023-03-25T23:14:30;99163.57;;;11.01;36.42
70690;BME280;58267;51.156;17.044;2023-03-25T23:16:55;99165.98;;;10.81;36.73
70690;BME280;58267;51.156;17.044;2023-03-25T23:19:21;99163.24;;;10.72;36.52
70690;BME280;58267;51.156;17.044;2023-03-25T23:21:46;99166.03;;;10.76;36.77
70690;BME280;58267;51.156;17.044;2023-03-25T23:24:11;99164.22;;;10.73;36.57
70690;BME280;58267;51.156;17.044;2023-03-25T23:26:38;99164.18;;;10.50;37.04
70690;BME280;58267;51.156;17.044;2023-03-25T23:29:03;99158.99;;;10.79;36.68
70690;BME280;58267;51.156;17.044;2023-03-25T23:31:31;99155.21;;;10.81;36.61
70690;BME280;58267;51.156;17.044;2023-03-25T23:33:54;99149.45;;;10.82;36.60
70690;BME280;58267;51.156;17.044;2023-03-25T23:36:18;99146.69;;;11.08;36.38
70690;BME280;58267;51.156;17.044;2023-03-25T23:38:43;99145.59;;;10.71;36.70
70690;BME280;58267;51.156;17.044;2023-03-25T23:41:09;99149.07;;;10.77;36.69
70690;BME280;58267;51.156;17.044;2023-03-25T23:43:34;99151.11;;;10.46;37.10
70690;BME280;58267;51.156;17.044;2023-03-25T23:45:59;99151.11;;;10.25;37.52
70690;BME280;58267;51.156;17.044;2023-03-25T23:48:25;99151.30;;;10.28;37.49
70690;BME280;58267;51.156;17.044;2023-03-25T23:50:50;99150.09;;;10.09;37.74
70690;BME280;58267;51.156;17.044;2023-03-25T23:53:15;99147.30;;;9.95;37.94
70690;BME280;58267;51.156;17.044;2023-03-25T23:55:43;99145.10;;;10.23;38.24
70690;BME280;58267;51.156;17.044;2023-03-25T23:58:06;99143.55;;;10.29;37.57
